createdAt,value
2022-08-03T00:04:11.636Z,2.03
2022-08-03T00:08:23.688Z,1.60
2022-08-03T00:12:36.492Z,1.70
2022-08-03T00:16:48.148Z,2.15
2022-08-03T00:20:59.768Z,2.22
2022-08-03T00:25:11.412Z,1.80
2022-08-03T00:29:23.059Z,2.20
2022-08-03T00:33:59.101Z,2.10
2022-08-03T00:38:06.383Z,1.90
2022-08-03T00:42:18.500Z,1.92
2022-08-03T00:46:30.402Z,1.52
2022-08-03T00:50:43.596Z,2.05
2022-08-03T00:54:55.262Z,1.55
2022-08-03T00:59:07.295Z,2.15
2022-08-03T01:03:19.007Z,1.90
2022-08-03T01:07:43.922Z,1.90
2022-08-03T01:12:26.882Z,2.15
2022-08-03T01:17:01.935Z,1.80
2022-08-03T01:21:25.367Z,1.60
2022-08-03T01:25:56.416Z,1.73
2022-08-03T01:30:10.657Z,1.60
2022-08-03T01:34:25.357Z,1.60
2022-08-03T01:38:43.121Z,1.80
2022-08-03T01:42:57.632Z,1.90
2022-08-03T01:47:11.009Z,1.90
2022-08-03T01:51:23.770Z,1.67
2022-08-03T01:55:57.430Z,1.90
2022-08-03T02:00:09.906Z,1.58
2022-08-03T02:04:28.227Z,1.75
2022-08-03T02:08:41.874Z,2.17
2022-08-03T02:12:54.664Z,1.63
2022-08-03T02:17:10.429Z,1.75
2022-08-03T02:21:57.234Z,1.73
2022-08-03T02:25:59.912Z,1.52
2022-08-03T02:30:14.509Z,1.60
2022-08-03T02:34:29.437Z,1.80
2022-08-03T02:38:43.339Z,1.50
2022-08-03T02:42:59.647Z,1.55
2022-08-03T02:47:13.365Z,1.33
2022-08-03T02:51:28.196Z,1.77
2022-08-03T02:55:45.638Z,1.45
2022-08-03T02:59:58.232Z,1.70
2022-08-03T03:04:11.318Z,1.70
2022-08-03T03:08:28.432Z,2.10
2022-08-03T03:12:42.254Z,2.00
2022-08-03T03:16:57.917Z,1.90
2022-08-03T03:21:10.798Z,1.75
2022-08-03T03:25:22.730Z,1.58
2022-08-03T03:29:39.289Z,1.83
2022-08-03T03:33:51.407Z,1.65
2022-08-03T03:38:03.090Z,2.05
2022-08-03T03:42:14.932Z,1.75
2022-08-03T03:46:26.893Z,1.85
2022-08-03T03:50:41.973Z,1.90
2022-08-03T03:54:57.491Z,1.90
2022-08-03T03:59:12.409Z,1.92
2022-08-03T04:03:24.192Z,1.85
2022-08-03T04:08:19.193Z,2.33
2022-08-03T04:12:31.741Z,1.77
2022-08-03T04:16:49.170Z,2.35
2022-08-03T04:21:06.430Z,1.65
2022-08-03T04:25:20.882Z,1.80
2022-08-03T04:29:38.725Z,1.70
2022-08-03T04:34:00.594Z,1.92
2022-08-03T04:38:14.416Z,2.05
2022-08-03T04:42:27.025Z,2.30
2022-08-03T04:46:40.001Z,2.08
2022-08-03T04:50:58.510Z,2.10
2022-08-03T04:55:10.256Z,2.00
2022-08-03T04:59:21.969Z,2.50
2022-08-03T05:03:33.617Z,3.03
2022-08-03T05:07:45.232Z,2.33
2022-08-03T05:11:56.963Z,2.40
2022-08-03T05:16:08.697Z,2.80
2022-08-03T05:20:20.434Z,2.80
2022-08-03T05:24:32.108Z,2.90
2022-08-03T05:28:49.940Z,2.42
2022-08-03T05:33:03.988Z,2.40
2022-08-03T05:37:15.821Z,2.30
2022-08-03T05:41:36.802Z,2.75
2022-08-03T05:46:01.487Z,2.72
2022-08-03T05:50:21.081Z,2.47
2022-08-03T05:54:55.976Z,2.80
2022-08-03T05:59:22.758Z,2.92
2022-08-03T06:03:35.935Z,2.63
2022-08-03T06:07:47.618Z,2.60
2022-08-03T06:11:59.248Z,3.15
2022-08-03T06:16:11.063Z,2.72
2022-08-03T06:20:27.314Z,2.33
2022-08-03T06:24:39.251Z,2.03
2022-08-03T06:29:04.086Z,2.45
2022-08-03T06:33:16.664Z,2.33
2022-08-03T06:37:28.846Z,2.47
2022-08-03T06:41:44.858Z,2.25
2022-08-03T06:45:56.690Z,2.40
2022-08-03T06:50:16.218Z,2.47
2022-08-03T06:54:32.924Z,2.35
2022-08-03T06:58:45.149Z,2.30
2022-08-03T07:02:58.424Z,2.28
2022-08-03T07:07:10.293Z,2.50
2022-08-03T07:11:22.503Z,2.28
2022-08-03T07:15:38.403Z,2.00
2022-08-03T07:20:08.391Z,2.15
2022-08-03T07:24:20.753Z,1.42
2022-08-03T07:28:32.405Z,2.00
2022-08-03T07:32:50.183Z,2.08
2022-08-03T07:37:02.481Z,1.85
2022-08-03T07:41:14.165Z,2.70
2022-08-03T07:45:26.827Z,2.15
2022-08-03T07:49:41.806Z,1.80
2022-08-03T07:53:53.725Z,1.73
2022-08-03T07:58:09.336Z,2.13
2022-08-03T08:02:21.028Z,2.20
2022-08-03T08:06:33.463Z,1.55
2022-08-03T08:10:57.843Z,2.20
2022-08-03T08:15:10.362Z,2.28
2022-08-03T08:19:22.114Z,2.03
2022-08-03T08:23:42.278Z,1.90
2022-08-03T08:28:22.203Z,1.90
2022-08-03T08:32:28.420Z,2.13
2022-08-03T08:36:40.223Z,2.38
2022-08-03T08:40:56.047Z,2.33
2022-08-03T08:45:09.289Z,2.40
2022-08-03T08:49:23.550Z,1.92
2022-08-03T08:53:38.663Z,2.33
2022-08-03T08:58:01.866Z,2.40
2022-08-03T09:02:13.714Z,2.35
2022-08-03T09:06:25.474Z,2.20
2022-08-03T09:10:37.280Z,2.38
2022-08-03T09:15:01.043Z,2.13
2022-08-03T09:19:21.609Z,2.42
2022-08-03T09:24:02.222Z,2.45
2022-08-03T09:29:01.756Z,2.25
2022-08-03T09:32:49.943Z,2.33
2022-08-03T09:37:02.537Z,2.47
2022-08-03T09:41:22.855Z,2.40
2022-08-03T09:45:36.092Z,1.92
2022-08-03T09:50:07.447Z,2.85
2022-08-03T09:54:30.249Z,2.30
2022-08-03T09:58:47.339Z,2.80
2022-08-03T10:03:05.811Z,2.05
2022-08-03T10:07:17.669Z,2.00
2022-08-03T10:11:31.050Z,2.70
2022-08-03T10:16:21.916Z,2.80
2022-08-03T10:20:14.694Z,2.17
2022-08-03T10:24:29.520Z,2.63
2022-08-03T10:28:47.258Z,2.15
2022-08-03T10:33:05.102Z,2.40
2022-08-03T10:37:42.603Z,2.33
2022-08-03T10:42:14.659Z,2.10
2022-08-03T10:46:27.673Z,2.47
2022-08-03T10:50:42.112Z,1.90
2022-08-03T10:55:12.752Z,2.08
2022-08-03T10:59:46.915Z,2.17
2022-08-03T11:03:58.547Z,1.80
2022-08-03T11:08:34.961Z,2.05
2022-08-03T11:12:47.181Z,1.95
2022-08-03T11:17:14.175Z,1.92
2022-08-03T11:21:48.265Z,2.38
2022-08-03T11:26:15.905Z,1.80
2022-08-03T11:30:29.758Z,2.13
2022-08-03T11:35:08.070Z,1.83
2022-08-03T11:39:19.729Z,1.83
2022-08-03T11:43:32.001Z,1.88
2022-08-03T11:47:51.162Z,1.80
2022-08-03T11:52:03.333Z,1.73
2022-08-03T11:56:14.980Z,1.80
2022-08-03T12:00:31.075Z,2.13
2022-08-03T12:05:02.797Z,1.95
2022-08-03T12:09:17.608Z,1.60
2022-08-03T12:14:26.988Z,2.25
2022-08-03T12:18:18.441Z,2.22
2022-08-03T12:22:39.275Z,1.90
2022-08-03T12:26:58.535Z,2.00
2022-08-03T12:31:11.551Z,1.80
2022-08-03T12:35:24.639Z,1.23
2022-08-03T12:39:36.405Z,1.77
2022-08-03T12:44:09.720Z,1.50
2022-08-03T12:48:21.371Z,1.70
2022-08-03T12:52:43.251Z,1.20
2022-08-03T12:57:08.751Z,1.27
2022-08-03T13:01:24.237Z,1.38
2022-08-03T13:05:45.280Z,1.63
2022-08-03T13:09:56.962Z,1.02
2022-08-03T13:14:08.563Z,1.30
2022-08-03T13:18:25.058Z,1.90
2022-08-03T13:22:36.792Z,1.35
2022-08-03T13:26:48.409Z,1.40
2022-08-03T13:31:00.645Z,1.50
2022-08-03T13:35:12.360Z,1.48
2022-08-03T13:39:32.481Z,1.17
2022-08-03T13:43:46.861Z,1.30
2022-08-03T13:47:58.530Z,1.52
2022-08-03T13:52:10.230Z,1.20
2022-08-03T13:56:21.908Z,1.40
2022-08-03T14:00:34.440Z,1.00
2022-08-03T14:04:46.057Z,1.20
2022-08-03T14:09:00.558Z,1.10
2022-08-03T14:13:16.851Z,1.55
2022-08-03T14:17:40.779Z,1.30
2022-08-03T14:22:06.246Z,1.35
2022-08-03T14:26:20.295Z,1.40
2022-08-03T14:30:32.002Z,1.40
2022-08-03T14:34:43.794Z,1.08
2022-08-03T14:39:00.767Z,1.00
2022-08-03T14:43:13.223Z,1.02
2022-08-03T14:47:24.943Z,1.40
2022-08-03T14:51:36.707Z,1.40
2022-08-03T14:55:50.618Z,1.02
2022-08-03T15:00:04.694Z,1.40
2022-08-03T15:04:16.610Z,1.50
2022-08-03T15:08:28.367Z,1.25
2022-08-03T15:12:40.009Z,1.23
2022-08-03T15:16:51.711Z,1.35
2022-08-03T15:21:03.403Z,1.17
2022-08-03T15:26:03.567Z,1.15
2022-08-03T15:30:06.715Z,1.50
2022-08-03T15:34:18.575Z,1.30
2022-08-03T15:38:30.189Z,1.38
2022-08-03T15:42:41.881Z,1.27
2022-08-03T15:46:53.902Z,1.35
2022-08-03T15:51:05.872Z,1.30
2022-08-03T15:55:17.516Z,0.93
2022-08-03T15:59:29.164Z,1.25
2022-08-03T16:03:40.805Z,1.42
2022-08-03T16:07:59.022Z,1.25
2022-08-03T16:12:16.907Z,1.23
2022-08-03T16:16:28.637Z,1.38
2022-08-03T16:20:42.588Z,1.40
2022-08-03T16:24:55.304Z,1.30
2022-08-03T16:29:09.854Z,1.40
2022-08-03T16:33:35.508Z,1.40
2022-08-03T16:37:54.620Z,1.40
2022-08-03T16:42:08.708Z,1.38
2022-08-03T16:46:20.354Z,1.50
2022-08-03T16:50:32.210Z,1.33
2022-08-03T16:54:44.363Z,1.30
2022-08-03T16:59:04.816Z,1.25
2022-08-03T17:03:24.268Z,1.25
2022-08-03T17:07:36.196Z,1.27
2022-08-03T17:11:51.068Z,1.42
2022-08-03T17:16:04.835Z,1.30
2022-08-03T17:21:13.979Z,1.70
2022-08-03T17:25:51.468Z,1.45
2022-08-03T17:30:01.470Z,1.40
2022-08-03T17:34:14.529Z,1.65
2022-08-03T17:38:28.962Z,1.33
2022-08-03T17:42:50.447Z,1.30
2022-08-03T17:47:02.830Z,1.30
2022-08-03T17:51:34.019Z,1.42
2022-08-03T17:56:44.837Z,1.48
2022-08-03T18:01:59.822Z,1.20
2022-08-03T18:06:11.247Z,1.40
2022-08-03T18:10:20.727Z,1.58
2022-08-03T18:14:57.158Z,1.10
2022-08-03T18:19:13.808Z,1.75
2022-08-03T18:23:36.649Z,1.20
2022-08-03T18:27:50.563Z,1.15
2022-08-03T18:32:13.279Z,1.42
2022-08-03T18:36:30.289Z,1.30
2022-08-03T18:40:48.650Z,1.17
2022-08-03T18:45:55.347Z,1.42
2022-08-03T18:50:18.993Z,1.58
2022-08-03T18:55:02.542Z,1.42
2022-08-03T18:59:32.664Z,1.27
2022-08-03T19:03:52.062Z,1.25
2022-08-03T19:08:13.691Z,1.25
2022-08-03T19:12:37.853Z,1.50
2022-08-03T19:17:03.566Z,1.23
2022-08-03T19:21:17.527Z,1.48
2022-08-03T19:25:35.305Z,1.17
2022-08-03T19:29:58.811Z,1.55
2022-08-03T19:34:20.876Z,1.35
2022-08-03T19:38:35.938Z,1.88
2022-08-03T19:42:54.686Z,1.75
2022-08-03T19:47:29.420Z,1.60
2022-08-03T19:52:01.863Z,1.40
2022-08-03T19:56:15.187Z,1.83
2022-08-03T20:00:30.551Z,1.17
2022-08-03T20:04:48.930Z,1.50
2022-08-03T20:09:03.401Z,1.58
2022-08-03T20:13:19.642Z,1.45
2022-08-03T20:17:54.616Z,1.70
2022-08-03T20:22:08.193Z,1.73
2022-08-03T20:26:29.200Z,1.50
2022-08-03T20:30:47.383Z,1.58
2022-08-03T20:36:05.872Z,1.20
2022-08-03T20:40:20.644Z,1.40
2022-08-03T20:44:34.720Z,1.45
2022-08-03T20:48:57.187Z,1.30
2022-08-03T20:53:12.127Z,1.50
2022-08-03T20:57:24.746Z,1.70
2022-08-03T21:01:37.359Z,1.48
2022-08-03T21:05:53.525Z,1.30
2022-08-03T21:10:06.218Z,1.50
2022-08-03T21:14:31.699Z,1.10
2022-08-03T21:18:50.039Z,1.42
2022-08-03T21:23:09.619Z,1.20
2022-08-03T21:27:21.516Z,1.65
2022-08-03T21:31:33.329Z,1.60
2022-08-03T21:35:46.451Z,1.27
2022-08-03T21:39:58.162Z,1.40
2022-08-03T21:44:09.910Z,1.40
2022-08-03T21:48:25.099Z,1.63
2022-08-03T21:52:43.334Z,1.33
2022-08-03T21:56:56.257Z,1.20
2022-08-03T22:01:09.417Z,1.60
2022-08-03T22:05:29.199Z,1.50
2022-08-03T22:09:58.078Z,1.58
2022-08-03T22:14:10.214Z,1.15
2022-08-03T22:18:22.262Z,1.50
2022-08-03T22:22:35.668Z,1.38
2022-08-03T22:27:06.967Z,1.63
2022-08-03T22:31:30.745Z,1.58
2022-08-03T22:35:55.909Z,1.65
2022-08-03T22:40:11.821Z,1.50
2022-08-03T22:44:24.097Z,1.33
2022-08-03T22:48:41.323Z,1.30
2022-08-03T22:52:54.211Z,2.20
2022-08-03T22:57:05.974Z,1.27
2022-08-03T23:01:21.237Z,1.23
2022-08-03T23:06:01.779Z,1.67
2022-08-03T23:10:09.026Z,1.67
2022-08-03T23:14:22.406Z,1.70
2022-08-03T23:18:41.276Z,1.65
2022-08-03T23:22:54.422Z,1.50
2022-08-03T23:27:09.168Z,1.88
2022-08-03T23:31:27.725Z,1.63
2022-08-03T23:36:28.061Z,1.88
2022-08-03T23:40:31.256Z,2.00
2022-08-03T23:44:44.575Z,1.80
2022-08-03T23:48:59.953Z,1.67
2022-08-03T23:53:21.556Z,1.58
2022-08-03T23:57:54.661Z,1.70
